Time;durP1;ratioP1;P1;durP2;ratioP2;P2;SDS_P1;SDS_P2;PMS_P1;PMS_P2;Temp;Humidity;BMP_temperature;BMP_pressure;BME280_temperature;BME280_humidity;BME280_pressure;Samples;Min_cycle;Max_cycle;Signal;HPM_P1;HPM_P2
2022/10/25 00:02:54;;;;;;;16.60;8.02;;;;;;;13.24;100.00;99125.69;8518648;27;20516;-78
2022/10/25 00:06:55;;;;;;;18.33;8.27;;;;;;;13.13;100.00;99123.66;8496721;27;20047;-78
2022/10/25 00:10:57;;;;;;;15.40;7.85;;;;;;;13.04;100.00;99127.16;8500897;27;20491;-78
2022/10/25 00:15:02;;;;;;;21.83;7.93;;;;;;;12.92;100.00;99129.75;8506057;27;20548;-79
2022/10/25 00:19:03;;;;;;;20.23;8.75;;;;;;;12.82;100.00;99130.09;8496014;27;20073;-79
2022/10/25 00:23:05;;;;;;;25.35;9.45;;;;;;;12.69;100.00;99136.47;8457133;27;20062;-79
2022/10/25 00:27:05;;;;;;;19.10;9.65;;;;;;;12.59;100.00;99143.03;8470935;27;20051;-79
2022/10/25 00:31:11;;;;;;;21.05;9.13;;;;;;;12.51;100.00;99140.34;8501201;27;20062;-79
2022/10/25 00:35:12;;;;;;;18.17;8.20;;;;;;;12.44;100.00;99134.59;8499292;27;20051;-78
2022/10/25 00:39:13;;;;;;;22.23;7.80;;;;;;;12.37;100.00;99134.31;8492591;27;20038;-78
2022/10/25 00:43:33;;;;;;;20.25;7.38;;;;;;;12.30;100.00;99139.41;8487117;27;20134;-78
2022/10/25 00:47:37;;;;;;;19.13;6.70;;;;;;;12.26;100.00;99144.66;8508299;27;20436;-78
2022/10/25 00:51:57;;;;;;;15.07;6.32;;;;;;;12.19;100.00;99139.72;8510297;27;20126;-78
2022/10/25 00:56:03;;;;;;;20.02;5.88;;;;;;;12.12;100.00;99139.41;8516243;27;20126;-78
2022/10/25 01:00:05;;;;;;;9.45;5.35;;;;;;;12.08;100.00;99133.03;8484800;27;20061;-78
2022/10/25 01:04:09;;;;;;;16.13;5.50;;;;;;;12.06;100.00;99124.41;8488732;27;20051;-79
2022/10/25 01:08:10;;;;;;;12.90;5.47;;;;;;;12.04;100.00;99134.78;8476641;27;20480;-79
2022/10/25 01:12:11;;;;;;;9.48;4.63;;;;;;;12.02;100.00;99128.06;8494297;27;20492;-78
2022/10/25 01:16:40;;;;;;;8.20;4.30;;;;;;;11.99;100.00;99126.81;8460141;27;20058;-79
2022/10/25 01:20:53;;;;;;;15.75;4.82;;;;;;;11.96;100.00;99130.13;8498816;27;20065;-79
2022/10/25 01:25:42;;;;;;;6.90;3.97;;;;;;;11.93;100.00;99125.38;8494561;27;20082;-78
2022/10/25 01:30:05;;;;;;;10.30;4.43;;;;;;;11.90;100.00;99120.56;8349532;28;20048;-78
2022/10/25 01:34:28;;;;;;;8.75;4.55;;;;;;;11.86;100.00;99119.63;8327987;28;20049;-78
2022/10/25 01:39:02;;;;;;;8.00;4.55;;;;;;;11.81;100.00;99117.06;8331507;28;20457;-78
2022/10/25 01:43:10;;;;;;;7.60;4.07;;;;;;;11.78;100.00;99128.53;8257316;28;20558;-78
2022/10/25 01:47:16;;;;;;;;;;;;;;;11.76;100.00;99114.53;8255130;28;20050;-78
2022/10/25 01:51:17;;;;;;;14.65;4.97;;;;;;;11.77;100.00;99126.94;8250425;28;19922;-78
2022/10/25 01:55:19;;;;;;;15.80;4.93;;;;;;;11.82;100.00;99114.06;8260199;28;20053;-79
2022/10/25 01:59:43;;;;;;;8.55;4.35;;;;;;;11.95;100.00;99117.72;8262197;28;20042;-78
2022/10/25 02:03:54;;;;;;;8.65;4.28;;;;;;;12.04;100.00;99126.66;8251306;28;20242;-79
2022/10/25 02:08:27;;;;;;;17.35;4.45;;;;;;;12.04;100.00;99126.66;8326623;28;20061;-79
2022/10/25 02:12:42;;;;;;;8.15;4.20;;;;;;;11.99;100.00;99128.72;8303346;28;20057;-79
2022/10/25 02:16:48;;;;;;;10.68;4.10;;;;;;;11.91;100.00;99127.59;8327378;28;20049;-79
2022/10/25 02:20:51;;;;;;;9.60;4.80;;;;;;;11.82;100.00;99130.28;8483823;27;20062;-79
2022/10/25 02:24:52;;;;;;;7.25;4.00;;;;;;;11.77;100.00;99137.75;8485402;27;20054;-79
2022/10/25 02:28:53;;;;;;;13.00;5.00;;;;;;;11.80;100.00;99137.13;8481929;27;20051;-79
2022/10/25 02:32:54;;;;;;;12.88;4.63;;;;;;;11.77;100.00;99138.56;8501614;27;20049;-79
2022/10/25 02:36:55;;;;;;;10.75;4.30;;;;;;;11.70;100.00;99131.97;8502552;27;20107;-79
2022/10/25 02:40:57;;;;;;;11.13;4.60;;;;;;;11.69;100.00;99143.91;8513579;27;20042;-79
2022/10/25 02:44:58;;;;;;;10.95;4.82;;;;;;;11.66;100.00;99136.44;8499647;27;20061;-79
2022/10/25 02:48:59;;;;;;;13.32;5.50;;;;;;;11.63;100.00;99131.66;8509504;27;20039;-79
2022/10/25 02:53:00;;;;;;;12.68;5.05;;;;;;;11.66;100.00;99128.31;8514440;27;20484;-78
2022/10/25 02:57:01;;;;;;;11.25;4.85;;;;;;;11.65;100.00;99140.25;8502713;27;20046;-78
2022/10/25 03:01:03;;;;;;;11.98;4.90;;;;;;;11.69;100.00;99135.78;8474273;27;20047;-78
2022/10/25 03:05:04;;;;;;;18.33;5.18;;;;;;;11.69;100.00;99135.78;8500566;27;20472;-78
2022/10/25 03:09:05;;;;;;;12.55;5.38;;;;;;;11.74;100.00;99138.38;8498532;27;20492;-78
2022/10/25 03:13:09;;;;;;;14.15;5.32;;;;;;;11.82;100.00;99124.88;8507935;27;20133;-78
2022/10/25 03:17:10;;;;;;;13.07;5.20;;;;;;;11.88;100.00;99143.66;8520699;27;20058;-78
2022/10/25 03:21:11;;;;;;;11.48;4.95;;;;;;;11.96;100.00;99135.56;8513104;27;20059;-81
2022/10/25 03:25:12;;;;;;;12.73;5.75;;;;;;;12.05;100.00;99138.28;8509199;27;20088;-79
2022/10/25 03:29:13;;;;;;;16.25;5.07;;;;;;;12.12;100.00;99147.50;8468815;27;20650;-79
2022/10/25 03:33:14;;;;;;;14.13;5.80;;;;;;;12.17;100.00;99141.94;8501468;27;20043;-79
2022/10/25 03:37:18;;;;;;;12.45;5.05;;;;;;;12.22;100.00;99155.31;8507445;27;20054;-79
2022/10/25 03:41:19;;;;;;;14.60;4.75;;;;;;;12.23;100.00;99140.69;8500842;27;20053;-79
2022/10/25 03:45:20;;;;;;;12.70;6.18;;;;;;;12.24;100.00;99153.09;8481194;27;20047;-79
2022/10/25 03:49:21;;;;;;;15.85;5.95;;;;;;;12.23;100.00;99146.09;8500672;27;20039;-79
2022/10/25 03:53:22;;;;;;;16.73;5.20;;;;;;;12.26;100.00;99129.22;8510338;27;20049;-79
2022/10/25 03:57:23;;;;;;;14.48;5.65;;;;;;;12.25;100.00;99133.03;8498393;27;20069;-79
2022/10/25 04:01:24;;;;;;;12.13;5.03;;;;;;;12.19;100.00;99128.91;8506112;27;20055;-78
2022/10/25 04:05:25;;;;;;;10.85;5.57;;;;;;;12.15;100.00;99127.94;8506032;27;20137;-78
2022/10/25 04:09:26;;;;;;;9.63;4.75;;;;;;;12.13;100.00;99143.69;8519475;27;20107;-78
2022/10/25 04:13:27;;;;;;;13.32;5.05;;;;;;;12.08;100.00;99135.72;8509657;27;20055;-78
2022/10/25 04:17:28;;;;;;;9.25;4.40;;;;;;;12.02;100.00;99145.13;8497182;27;20138;-79
2022/10/25 04:21:29;;;;;;;10.98;4.78;;;;;;;11.95;100.00;99144.00;8520860;27;20104;-79
2022/10/25 04:25:30;;;;;;;14.15;5.65;;;;;;;11.89;100.00;99145.28;8499786;27;20035;-79
2022/10/25 04:29:31;;;;;;;15.18;5.40;;;;;;;11.84;100.00;99138.09;8509520;27;20061;-79
2022/10/25 04:33:32;;;;;;;17.63;5.00;;;;;;;11.82;100.00;99134.91;8478862;27;20039;-79
2022/10/25 04:37:33;;;;;;;10.88;5.00;;;;;;;11.78;100.00;99139.34;8492051;27;20402;-79
2022/10/25 04:41:34;;;;;;;12.90;4.68;;;;;;;11.72;100.00;99156.81;8515321;27;20072;-79
2022/10/25 04:45:35;;;;;;;8.73;3.92;;;;;;;11.63;100.00;99153.31;8499311;27;20050;-78
2022/10/25 04:49:36;;;;;;;11.90;5.07;;;;;;;11.57;100.00;99149.16;8501686;27;20088;-79
2022/10/25 04:53:37;;;;;;;10.48;4.18;;;;;;;11.51;100.00;99150.41;8499967;27;20039;-79
2022/10/25 04:57:38;;;;;;;11.82;4.95;;;;;;;11.50;100.00;99148.78;8507777;27;20081;-79
2022/10/25 05:01:39;;;;;;;12.45;5.15;;;;;;;11.43;100.00;99155.44;8504743;27;20093;-79
2022/10/25 05:05:40;;;;;;;12.48;4.30;;;;;;;11.36;100.00;99155.13;8503179;27;20038;-79
2022/10/25 05:09:41;;;;;;;12.10;4.78;;;;;;;11.35;100.00;99152.72;8449057;27;20055;-79
2022/10/25 05:13:43;;;;;;;13.15;4.47;;;;;;;11.30;100.00;99159.06;8501973;27;20039;-79
2022/10/25 05:17:44;;;;;;;17.40;6.25;;;;;;;11.35;100.00;99158.13;8485549;27;20047;-79
2022/10/25 05:21:46;;;;;;;15.05;6.03;;;;;;;11.34;100.00;99161.94;8502296;27;20548;-78
2022/10/25 05:25:48;;;;;;;26.48;13.57;;;;;;;11.32;100.00;99164.94;8519440;27;20129;-79
2022/10/25 05:29:49;;;;;;;33.60;17.25;;;;;;;11.28;100.00;99161.28;8514113;27;20418;-79
2022/10/25 05:33:51;;;;;;;35.17;13.48;;;;;;;11.26;100.00;99171.59;8502927;27;20039;-79
2022/10/25 05:37:52;;;;;;;18.60;10.18;;;;;;;11.30;100.00;99172.59;8501101;27;20362;-79
2022/10/25 05:41:53;;;;;;;17.48;8.57;;;;;;;11.33;100.00;99171.94;8499788;27;20146;-79
2022/10/25 05:46:05;;;;;;;13.40;7.32;;;;;;;11.38;100.00;99174.53;8469447;27;20047;-79
2022/10/25 05:50:06;;;;;;;10.80;5.25;;;;;;;11.47;100.00;99179.19;8497448;27;20396;-79
2022/10/25 05:54:12;;;;;;;10.02;5.43;;;;;;;11.57;100.00;99181.59;8505383;27;20059;-79
2022/10/25 05:58:13;;;;;;;11.73;4.90;;;;;;;11.59;100.00;99184.78;8460771;27;20126;-79
2022/10/25 06:02:14;;;;;;;9.88;4.60;;;;;;;11.61;100.00;99187.97;8502334;27;20519;-81
2022/10/25 06:06:16;;;;;;;10.77;4.70;;;;;;;11.71;100.00;99193.09;8502903;27;20085;-78
2022/10/25 06:10:17;;;;;;;12.32;4.35;;;;;;;11.78;100.00;99193.47;8449019;27;20050;-79
2022/10/25 06:14:18;;;;;;;9.88;4.40;;;;;;;11.80;100.00;99202.06;8513673;27;20114;-78
2022/10/25 06:18:19;;;;;;;9.13;4.65;;;;;;;11.83;100.00;99212.28;8510576;27;20095;-78
2022/10/25 06:22:22;;;;;;;10.60;4.72;;;;;;;11.87;100.00;99218.63;8516676;27;20058;-79
2022/10/25 06:26:25;;;;;;;13.93;4.50;;;;;;;11.91;100.00;99225.00;8477506;27;20396;-79
2022/10/25 06:30:26;;;;;;;10.35;4.63;;;;;;;11.92;100.00;99226.63;8506668;27;20384;-79
2022/10/25 06:34:27;;;;;;;15.93;4.85;;;;;;;11.88;100.00;99225.66;8498719;27;20059;-79
2022/10/25 06:38:29;;;;;;;17.67;5.20;;;;;;;11.89;100.00;99232.66;8496670;27;20407;-79
2022/10/25 06:42:29;;;;;;;10.95;5.13;;;;;;;11.89;100.00;99238.06;8476238;27;20074;-79
2022/10/25 06:46:32;;;;;;;11.90;4.80;;;;;;;11.95;100.00;99242.22;8515153;27;20403;-79
2022/10/25 06:50:33;;;;;;;9.73;4.85;;;;;;;12.08;100.00;99246.72;8514998;27;20043;-80
2022/10/25 06:54:34;;;;;;;13.02;4.65;;;;;;;12.31;100.00;99254.75;8516261;27;20043;-79
2022/10/25 06:58:36;;;;;;;10.82;5.15;;;;;;;12.56;100.00;99251.25;8498586;27;20068;-79
2022/10/25 07:02:37;;;;;;;9.45;4.30;;;;;;;12.85;100.00;99258.75;8498629;27;20497;-82
2022/10/25 07:06:38;;;;;;;15.15;4.72;;;;;;;13.10;99.35;99250.59;8504392;27;20134;-80
2022/10/25 07:10:40;;;;;;;10.35;4.40;;;;;;;13.30;98.72;99253.78;8479863;27;20130;-79
2022/10/25 07:14:41;;;;;;;10.05;4.22;;;;;;;13.37;98.11;99262.22;8497873;27;20050;-80
2022/10/25 07:18:42;;;;;;;11.20;5.05;;;;;;;13.43;97.79;99269.06;8498186;27;20504;-79
2022/10/25 07:22:42;;;;;;;15.05;5.13;;;;;;;13.49;97.16;99273.19;8476795;27;20122;-79
2022/10/25 07:26:43;;;;;;;13.88;4.32;;;;;;;13.56;96.54;99262.63;8497665;27;20047;-79
2022/10/25 07:30:45;;;;;;;10.27;4.32;;;;;;;13.64;96.44;99267.22;8418818;28;20055;-79
2022/10/25 07:34:47;;;;;;;9.32;4.03;;;;;;;13.63;95.99;99268.38;8419595;28;20098;-79
2022/10/25 07:38:47;;;;;;;8.30;4.10;;;;;;;13.65;96.48;99271.53;8400441;28;20043;-79
2022/10/25 07:42:49;;;;;;;12.93;4.75;;;;;;;13.79;95.98;99277.56;8410320;28;20080;-79
2022/10/25 07:46:51;;;;;;;10.23;4.43;;;;;;;13.88;95.40;99281.03;8374779;28;20129;-80
2022/10/25 07:50:52;;;;;;;17.23;4.32;;;;;;;13.91;94.89;99274.94;8404806;28;20171;-79
2022/10/25 07:54:53;;;;;;;16.17;4.30;;;;;;;13.92;94.79;99281.97;8401873;28;20044;-79
2022/10/25 07:58:54;;;;;;;15.52;4.50;;;;;;;13.93;94.63;99289.00;8423892;28;20055;-80
2022/10/25 08:02:55;;;;;;;12.77;4.43;;;;;;;13.95;94.40;99289.47;8488536;27;20885;-78
2022/10/25 08:07:00;;;;;;;14.48;5.20;;;;;;;14.06;94.50;99280.97;8515832;27;20070;-80
2022/10/25 08:11:06;;;;;;;8.90;4.63;;;;;;;14.14;94.14;99293.69;8525519;27;20134;-80
2022/10/25 08:15:08;;;;;;;11.90;4.43;;;;;;;14.18;93.81;99286.47;8498814;27;20130;-79
2022/10/25 08:19:09;;;;;;;13.55;4.55;;;;;;;14.19;93.09;99290.78;8468947;27;20147;-80
2022/10/25 08:23:10;;;;;;;12.48;4.40;;;;;;;14.25;93.19;99289.47;8464190;27;20073;-79
2022/10/25 08:27:11;;;;;;;11.80;4.32;;;;;;;14.25;92.74;99284.06;8495526;27;20085;-80
2022/10/25 08:31:15;;;;;;;12.93;4.15;;;;;;;14.32;92.48;99287.06;8509893;27;20036;-81
2022/10/25 08:35:16;;;;;;;14.90;4.13;;;;;;;14.40;92.94;99291.66;8500745;27;20487;-79
2022/10/25 08:39:17;;;;;;;11.82;4.03;;;;;;;14.47;92.75;99291.94;8499229;27;20058;-80
2022/10/25 08:43:56;;;;;;;12.65;3.95;;;;;;;14.56;92.53;99295.38;8453690;27;20046;-78
2022/10/25 08:47:57;;;;;;;12.70;3.33;;;;;;;14.71;90.70;99286.66;8495105;27;20051;-80
2022/10/25 08:51:59;;;;;;;9.93;3.50;;;;;;;14.86;89.37;99292.63;8455206;27;20058;-81
2022/10/25 08:56:00;;;;;;;11.80;2.80;;;;;;;14.93;88.47;99298.31;8457909;27;20051;-81
2022/10/25 09:00:09;;;;;;;9.65;2.78;;;;;;;15.02;88.05;99301.75;8476705;27;20514;-80
2022/10/25 09:04:10;;;;;;;10.07;2.72;;;;;;;15.09;87.69;99307.47;8483109;27;20129;-81
2022/10/25 09:08:22;;;;;;;10.25;2.67;;;;;;;15.29;87.52;99306.63;8476648;27;20050;-80
2022/10/25 09:12:38;;;;;;;9.32;2.38;;;;;;;15.49;86.29;99294.91;8494745;27;20051;-80
2022/10/25 09:17:09;;;;;;;16.67;2.95;;;;;;;15.35;86.12;99299.84;8486429;27;20051;-79
2022/10/25 09:21:42;;;;;;;11.73;3.25;;;;;;;15.19;85.91;99301.59;8340808;28;20052;-80
2022/10/25 09:25:54;;;;;;;8.73;2.80;;;;;;;15.40;85.58;99296.91;8354110;28;20052;-80
2022/10/25 09:30:06;;;;;;;10.43;2.72;;;;;;;15.59;86.15;99299.97;8356246;28;20092;-82
2022/10/25 09:34:09;;;;;;;12.50;2.85;;;;;;;15.75;85.38;99312.94;8356115;28;20052;-80
2022/10/25 09:38:21;;;;;;;13.05;3.00;;;;;;;15.85;83.94;99312.50;8339042;28;20591;-82
2022/10/25 09:42:32;;;;;;;12.15;2.83;;;;;;;15.81;83.70;99312.34;8355675;28;20498;-80
2022/10/25 09:46:38;;;;;;;8.90;2.95;;;;;;;15.90;84.17;99315.00;8339815;28;20037;-81
2022/10/25 09:50:47;;;;;;;10.57;3.10;;;;;;;15.96;84.61;99308.19;8341474;28;20045;-80
2022/10/25 09:55:04;;;;;;;11.52;2.83;;;;;;;16.12;83.74;99317.28;8356206;28;20063;-80
2022/10/25 09:59:05;;;;;;;26.70;2.83;;;;;;;16.15;83.25;99322.03;8493779;27;20058;-83
2022/10/25 10:03:11;;;;;;;12.82;2.70;;;;;;;16.18;82.42;99310.47;8473969;27;20055;-82
2022/10/25 10:07:32;;;;;;;9.63;2.80;;;;;;;16.21;82.83;99309.78;8518045;27;20687;-81
2022/10/25 10:11:35;;;;;;;11.15;2.60;;;;;;;16.27;82.54;99319.34;8478186;27;20411;-80
2022/10/25 10:15:45;;;;;;;10.10;2.60;;;;;;;16.11;82.49;99309.44;8481627;27;20132;-79
2022/10/25 10:20:08;;;;;;;8.55;2.42;;;;;;;16.15;82.24;99316.59;8506910;27;20061;-80
2022/10/25 10:24:27;;;;;;;14.45;2.70;;;;;;;16.12;82.48;99300.16;8504035;27;20124;-80
2022/10/25 10:28:28;;;;;;;11.10;2.75;;;;;;;16.28;82.56;99310.03;8499477;27;20064;-79
2022/10/25 10:32:33;;;;;;;9.02;2.50;;;;;;;16.53;81.70;99304.53;8513904;27;20509;-79
2022/10/25 10:36:34;;;;;;;9.13;2.22;;;;;;;16.65;80.22;99307.28;8495409;27;20047;-81
2022/10/25 10:40:35;;;;;;;7.75;2.25;;;;;;;16.58;79.69;99307.03;8499371;27;20050;-80
2022/10/25 10:44:36;;;;;;;11.55;2.75;;;;;;;16.61;78.47;99306.38;8498885;27;20039;-79
2022/10/25 10:48:42;;;;;;;5.05;2.05;;;;;;;16.51;79.13;99301.34;8483146;27;20058;-80
2022/10/25 10:52:44;;;;;;;12.45;2.00;;;;;;;16.47;78.79;99310.22;8491973;27;20380;-81
2022/10/25 10:57:18;;;;;;;11.05;2.85;;;;;;;16.47;78.88;99312.97;8480474;27;20075;-80
2022/10/25 11:01:33;;;;;;;6.72;1.88;;;;;;;16.60;78.18;99315.72;8382849;28;20472;-79
2022/10/25 11:05:36;;;;;;;6.97;1.95;;;;;;;16.48;79.24;99306.38;8353388;28;20416;-80
2022/10/25 11:09:37;;;;;;;9.57;2.08;;;;;;;16.43;79.91;99306.59;8376255;28;20132;-79
2022/10/25 11:13:38;;;;;;;9.00;2.13;;;;;;;16.39;80.04;99319.31;8392343;28;20044;-81
2022/10/25 11:18:02;;;;;;;10.98;2.55;;;;;;;16.41;79.97;99310.81;8361823;28;20048;-80
2022/10/25 11:22:30;;;;;;;6.85;2.45;;;;;;;16.59;80.22;99319.56;8349119;28;20053;-81
2022/10/25 11:27:12;;;;;;;9.68;2.50;;;;;;;16.90;79.63;99319.72;8358622;28;20037;-81
2022/10/25 11:31:27;;;;;;;10.35;2.53;;;;;;;17.29;78.20;99316.16;8254736;28;20050;-80
2022/10/25 11:35:41;;;;;;;6.47;2.40;;;;;;;17.54;75.32;99316.06;8259324;28;20073;-79
2022/10/25 11:40:00;;;;;;;8.57;2.42;;;;;;;17.30;73.62;99316.97;8280055;28;20046;-80
2022/10/25 11:44:13;;;;;;;6.38;2.10;;;;;;;17.36;74.17;99321.03;8284225;28;20128;-81
2022/10/25 11:48:35;;;;;;;8.73;2.10;;;;;;;17.24;74.27;99324.59;8280957;28;20061;-81
2022/10/25 11:52:55;;;;;;;6.28;2.10;;;;;;;17.11;74.69;99325.81;8275689;28;20056;-79
2022/10/25 11:57:44;;;;;;;10.27;2.15;;;;;;;17.28;74.64;99320.06;8288059;28;20117;-80
2022/10/25 12:01:54;;;;;;;10.30;1.80;;;;;;;17.53;72.23;99314.47;8285928;28;20054;-79
2022/10/25 12:06:00;;;;;;;10.02;2.00;;;;;;;17.56;71.34;99319.22;8307838;28;20052;-81
2022/10/25 12:10:26;;;;;;;5.75;2.10;;;;;;;17.44;71.54;99333.75;8446598;28;20560;-81
2022/10/25 12:14:34;;;;;;;9.43;1.80;;;;;;;17.17;71.78;99324.41;8448369;28;20039;-81
2022/10/25 12:19:14;;;;;;;3.70;1.80;;;;;;;16.97;72.77;99330.84;8447905;28;20071;-81
2022/10/25 12:23:43;;;;;;;8.93;2.22;;;;;;;16.84;73.84;99334.75;8359796;28;20105;-81
2022/10/25 12:27:47;;;;;;;8.70;2.20;;;;;;;16.72;74.98;99329.31;8313184;28;20052;-80
2022/10/25 12:32:07;;;;;;;9.27;2.92;;;;;;;16.68;76.22;99328.41;8247512;28;20049;-81
2022/10/25 12:36:24;;;;;;;6.35;2.95;;;;;;;16.65;75.85;99323.66;8260765;28;20062;-79
2022/10/25 12:40:27;;;;;;;5.80;2.38;;;;;;;16.68;75.70;99322.94;8263392;28;20045;-80
2022/10/25 12:44:55;;;;;;;11.20;2.65;;;;;;;16.65;75.31;99323.66;8295069;28;20184;-80
2022/10/25 12:48:59;;;;;;;5.97;1.70;;;;;;;16.65;74.95;99323.66;8295620;28;20096;-80
2022/10/25 12:53:40;;;;;;;8.07;1.70;;;;;;;16.61;75.36;99339.09;8258983;28;20629;-80
2022/10/25 12:57:44;;;;;;;6.25;1.80;;;;;;;16.50;75.96;99343.41;8268410;28;20110;-79
2022/10/25 13:02:19;;;;;;;9.70;2.33;;;;;;;16.46;76.66;99343.28;8326250;28;20644;-80
2022/10/25 13:06:43;;;;;;;8.43;2.05;;;;;;;16.42;77.19;99348.63;8301997;28;20099;-79
2022/10/25 13:10:48;;;;;;;5.95;2.28;;;;;;;16.41;77.91;99340.78;8274513;28;20124;-80
2022/10/25 13:14:57;;;;;;;9.40;2.45;;;;;;;16.41;79.17;99341.56;8332132;28;20471;-80
2022/10/25 13:19:26;;;;;;;7.65;2.00;;;;;;;16.35;80.37;99353.84;8316179;28;20524;-80
2022/10/25 13:23:42;;;;;;;8.38;2.17;;;;;;;16.27;81.32;99357.47;8371127;28;20323;-81
2022/10/25 13:28:14;;;;;;;14.10;2.58;;;;;;;16.05;83.20;99355.19;8464617;27;20051;-81
2022/10/25 13:32:18;;;;;;;12.98;2.67;;;;;;;15.90;84.58;99353.13;8433650;28;20173;-81
2022/10/25 13:36:44;;;;;;;14.98;2.72;;;;;;;15.86;85.89;99349.50;8440719;28;20099;-81
2022/10/25 13:41:06;;;;;;;10.85;2.42;;;;;;;15.85;87.08;99350.63;8468819;27;20059;-80
2022/10/25 13:45:09;;;;;;;7.93;2.85;;;;;;;15.81;87.82;99355.16;8474511;27;20575;-81
2022/10/25 13:49:35;;;;;;;12.00;2.70;;;;;;;15.80;88.37;99354.34;8474886;27;20390;-81
2022/10/25 13:53:49;;;;;;;5.07;2.10;;;;;;;15.69;88.88;99352.41;8481585;27;20062;-81
2022/10/25 13:57:57;;;;;;;9.75;2.90;;;;;;;15.59;89.59;99359.84;8484674;27;20051;-81
2022/10/25 14:02:06;;;;;;;;;;;;;;;15.56;89.55;99360.50;8474685;27;20050;-81
2022/10/25 14:06:08;;;;;;;10.20;2.93;;;;;;;15.56;89.86;99355.06;8491264;27;19954;-81
2022/10/25 14:10:34;;;;;;;7.93;2.60;;;;;;;15.57;90.72;99362.09;8477014;27;20061;-79
2022/10/25 14:15:01;;;;;;;9.55;2.28;;;;;;;15.53;90.84;99363.91;8412631;28;20043;-80
2022/10/25 14:19:31;;;;;;;9.07;2.10;;;;;;;15.46;91.32;99371.78;8472902;27;20096;-80
2022/10/25 14:23:33;;;;;;;;;;;;;;;15.34;91.21;99369.00;8377980;28;20048;-80
2022/10/25 14:27:36;;;;;;;9.68;2.22;;;;;;;15.23;91.29;99374.06;8385313;28;19920;-80
2022/10/25 14:31:40;;;;;;;13.25;2.55;;;;;;;15.17;91.55;99374.63;8385955;28;20485;-80
2022/10/25 14:35:51;;;;;;;11.48;2.78;;;;;;;15.15;91.44;99387.75;8380909;28;20123;-81
2022/10/25 14:39:53;;;;;;;5.57;1.58;;;;;;;15.10;90.10;99385.22;8379891;28;20049;-80
2022/10/25 14:43:57;;;;;;;11.13;2.20;;;;;;;15.01;89.31;99389.94;8364732;28;20435;-80
2022/10/25 14:48:07;;;;;;;7.05;2.05;;;;;;;15.02;88.76;99383.34;8362828;28;20518;-80
2022/10/25 14:52:08;;;;;;;5.57;1.70;;;;;;;15.03;88.60;99390.38;8392733;28;20052;-80
2022/10/25 14:56:09;;;;;;;5.72;1.98;;;;;;;15.02;88.08;99388.78;8393059;28;20072;-80
2022/10/25 15:00:16;;;;;;;5.28;1.83;;;;;;;14.98;87.56;99393.28;8454598;27;20103;-79
2022/10/25 15:04:30;;;;;;;8.50;1.90;;;;;;;14.87;87.25;99392.88;8504414;27;20484;-79
2022/10/25 15:08:35;;;;;;;10.55;1.65;;;;;;;14.82;87.36;99389.56;8458983;27;20054;-80
2022/10/25 15:12:36;;;;;;;10.15;2.13;;;;;;;14.74;86.99;99394.75;8483238;27;20061;-80
2022/10/25 15:16:41;;;;;;;6.38;2.60;;;;;;;14.64;87.34;99395.13;8508107;27;20095;-81
2022/10/25 15:20:42;;;;;;;7.72;2.45;;;;;;;14.57;87.39;99400.25;8512269;27;20051;-80
2022/10/25 15:24:45;;;;;;;10.15;3.25;;;;;;;14.53;87.33;99404.78;8493041;27;20039;-80
2022/10/25 15:28:47;;;;;;;6.15;2.95;;;;;;;14.47;87.20;99406.06;8469761;27;20534;-79
2022/10/25 15:32:48;;;;;;;7.75;2.83;;;;;;;14.39;87.77;99404.19;8499090;27;20051;-80
2022/10/25 15:36:49;;;;;;;8.00;2.60;;;;;;;14.29;88.02;99404.50;8516989;27;20054;-80
2022/10/25 15:40:50;;;;;;;5.93;2.35;;;;;;;14.24;88.21;99415.56;8503654;27;20488;-80
2022/10/25 15:44:51;;;;;;;8.65;2.80;;;;;;;14.15;88.47;99415.59;8500607;27;20055;-80
2022/10/25 15:48:53;;;;;;;8.80;3.50;;;;;;;14.16;88.60;99416.41;8511985;27;20047;-79
2022/10/25 15:52:55;;;;;;;7.57;3.20;;;;;;;14.08;89.06;99425.34;8502264;27;20138;-79
2022/10/25 15:56:56;;;;;;;10.18;3.47;;;;;;;14.00;89.27;99435.13;8510220;27;20479;-80
2022/10/25 16:00:59;;;;;;;10.70;3.28;;;;;;;13.93;89.37;99424.75;8495838;27;20051;-80
2022/10/25 16:05:01;;;;;;;9.35;3.67;;;;;;;13.83;89.50;99419.66;8474027;27;20039;-80
2022/10/25 16:09:01;;;;;;;9.55;3.92;;;;;;;13.74;89.99;99435.19;8498923;27;20046;-80
2022/10/25 16:13:06;;;;;;;12.25;4.38;;;;;;;13.67;90.28;99437.56;8512200;27;20148;-79
2022/10/25 16:17:10;;;;;;;9.85;4.28;;;;;;;13.59;90.63;99430.22;8512377;27;20051;-79
2022/10/25 16:21:14;;;;;;;13.18;4.90;;;;;;;13.54;90.48;99438.53;8459069;27;20142;-79
2022/10/25 16:25:16;;;;;;;14.25;5.75;;;;;;;13.50;90.60;99445.72;8497833;27;20055;-79
2022/10/25 16:29:25;;;;;;;11.85;5.32;;;;;;;13.41;90.79;99451.16;8509520;27;20094;-80
2022/10/25 16:33:26;;;;;;;13.02;5.88;;;;;;;13.34;91.12;99477.13;8510305;27;20115;-79
2022/10/25 16:37:27;;;;;;;15.32;8.05;;;;;;;13.26;91.41;99469.81;8495491;27;20188;-79
2022/10/25 16:41:28;;;;;;;16.38;6.40;;;;;;;13.19;91.58;99466.75;8505217;27;20055;-79
2022/10/25 16:45:37;;;;;;;10.30;5.22;;;;;;;13.07;91.81;99461.91;8496916;27;20046;-80
2022/10/25 16:49:38;;;;;;;16.75;6.45;;;;;;;12.97;92.11;99463.00;8500507;27;20043;-79
2022/10/25 16:53:40;;;;;;;19.70;7.75;;;;;;;12.88;92.58;99464.91;8509624;27;20444;-79
2022/10/25 16:57:42;;;;;;;15.77;6.55;;;;;;;12.82;92.78;99466.16;8494839;27;20491;-80
2022/10/25 17:01:53;;;;;;;19.58;6.60;;;;;;;12.80;92.99;99479.22;8375447;27;20043;-79
2022/10/25 17:05:57;;;;;;;19.27;6.00;;;;;;;12.79;93.31;99472.22;8468589;27;20054;-79
2022/10/25 17:10:05;;;;;;;15.80;6.32;;;;;;;12.73;93.20;99478.91;8393371;28;20047;-79
2022/10/25 17:14:11;;;;;;;18.83;6.20;;;;;;;12.69;93.37;99488.75;8370904;28;20044;-79
2022/10/25 17:18:19;;;;;;;14.88;6.53;;;;;;;12.70;93.22;99479.50;8436346;28;20067;-79
2022/10/25 17:22:21;;;;;;;23.58;6.25;;;;;;;12.72;93.28;99481.91;8426339;28;20083;-79
2022/10/25 17:26:25;;;;;;;13.25;6.18;;;;;;;12.72;93.44;99484.63;8385680;28;20052;-79
2022/10/25 17:30:27;;;;;;;15.35;6.63;;;;;;;12.73;93.33;99489.72;8404705;28;20471;-79
2022/10/25 17:34:30;;;;;;;19.02;6.80;;;;;;;12.80;93.61;99494.69;8432958;28;20052;-79
2022/10/25 17:38:31;;;;;;;15.43;6.57;;;;;;;12.87;93.64;99490.41;8432145;28;20241;-79
2022/10/25 17:42:34;;;;;;;16.95;6.63;;;;;;;12.94;93.98;99501.59;8454670;28;20051;-79
2022/10/25 17:46:36;;;;;;;16.85;6.97;;;;;;;12.94;93.94;99490.75;8386941;28;20551;-79
2022/10/25 17:50:39;;;;;;;19.48;7.57;;;;;;;12.96;94.08;99499.34;8472693;28;20047;-79
2022/10/25 17:54:41;;;;;;;18.73;7.82;;;;;;;12.96;94.92;99499.34;8484144;28;20083;-80
2022/10/25 17:58:47;;;;;;;14.68;7.03;;;;;;;13.01;95.35;99501.94;8469561;27;20073;-80
2022/10/25 18:02:50;;;;;;;14.82;5.22;;;;;;;13.07;95.40;99495.25;8459390;28;20564;-79
2022/10/25 18:06:57;;;;;;;12.52;5.05;;;;;;;13.13;95.18;99492.41;8464118;27;20055;-80
2022/10/25 18:10:58;;;;;;;14.93;4.80;;;;;;;13.18;95.04;99500.41;8429354;28;20070;-81
2022/10/25 18:14:59;;;;;;;14.13;5.25;;;;;;;13.18;94.71;99497.69;8399674;28;20124;-80
2022/10/25 18:19:04;;;;;;;15.02;5.82;;;;;;;13.22;94.31;99504.09;8467567;28;20043;-79
2022/10/25 18:23:06;;;;;;;15.43;4.93;;;;;;;13.19;94.28;99502.00;8491757;27;20048;-79
2022/10/25 18:27:06;;;;;;;14.52;5.43;;;;;;;13.13;94.39;99503.25;8477378;27;20380;-79
2022/10/25 18:31:12;;;;;;;13.68;4.72;;;;;;;13.05;94.40;99502.91;8511926;27;20039;-78
2022/10/25 18:35:13;;;;;;;14.82;5.30;;;;;;;12.94;94.82;99517.88;8466695;27;20117;-79
2022/10/25 18:39:15;;;;;;;13.52;4.78;;;;;;;12.88;94.88;99510.19;8476173;27;20038;-78
2022/10/25 18:43:20;;;;;;;9.60;3.97;;;;;;;12.82;95.04;99509.53;8514748;27;20039;-78
2022/10/25 18:47:22;;;;;;;12.38;4.65;;;;;;;12.75;95.20;99517.31;8458014;27;20043;-79
2022/10/25 18:51:27;;;;;;;14.45;4.10;;;;;;;12.69;95.61;99518.53;8511868;27;20062;-79
2022/10/25 18:55:29;;;;;;;12.18;4.47;;;;;;;12.61;95.66;99524.75;8469707;27;20061;-78
2022/10/25 18:59:33;;;;;;;14.80;4.72;;;;;;;12.53;95.69;99529.00;8503820;27;20043;-78
2022/10/25 19:03:40;;;;;;;10.35;3.78;;;;;;;12.47;95.93;99524.03;8466101;27;20419;-78
2022/10/25 19:07:47;;;;;;;18.00;4.60;;;;;;;12.38;96.36;99537.50;8449729;27;20114;-79